WetterOnline ( https://www.wetteronline.de )

Wetter aktuell Kleiner Arber

Aktuelles Wetter: Großer Arber (1446m)

6-stündlich | Neueste Meldungen
Ortszeit Temperatur Wetter
Di, 11.05. 14:00 18.7° C wolkig
Di, 11.05. 8:00 13.6° C bedeckt
Di, 11.05. 2:00 14.3° C wolkig
Mo, 10.05. 20:00 16.4° C wolkig
Mo, 10.05. 14:00 19.7° C wolkenlos
Mo, 10.05. 8:00 13.2° C wolkig
Mo, 10.05. 2:00 13.7° C bewölkt
So, 09.05. 20:00 14.8° C leicht bewölkt
Ortszeit Temperatur Wetter
Di, 11.05. 19:00 16.1° C bewölkt
Di, 11.05. 18:50 16.1° C bewölkt
Di, 11.05. 18:40 16.3° C bewölkt
Di, 11.05. 18:30 16.3° C bedeckt
Di, 11.05. 18:20 16.3° C bedeckt
Di, 11.05. 18:10 16.1° C bedeckt
Di, 11.05. 18:00 16.1° C bewölkt
Di, 11.05. 17:30 17.2° C wolkig
Di, 11.05. 17:00 17.2° C bewölkt
Di, 11.05. 16:30 17.0° C bewölkt
Di, 11.05. 16:00 17.2° C bewölkt
Ortszeit Relative Feuchte Sichtweite
Di, 11.05. 14:00 36% 50 km
Di, 11.05. 8:00 47% >70 km
Di, 11.05. 2:00 54% >70 km
Mo, 10.05. 20:00 40% >70 km
Mo, 10.05. 14:00 34% >70 km
Mo, 10.05. 8:00 42% 55 km
Mo, 10.05. 2:00 45% >70 km
So, 09.05. 20:00 34% >70 km
Ortszeit Relative Feuchte Sichtweite
Di, 11.05. 19:00 46% -
Di, 11.05. 18:50 46% -
Di, 11.05. 18:40 44% -
Di, 11.05. 18:30 44% 4.7 km
Di, 11.05. 18:20 44% -
Di, 11.05. 18:10 46% -
Di, 11.05. 18:00 54% 50 km
Di, 11.05. 17:30 42% >70 km
Di, 11.05. 17:00 41% 55 km
Di, 11.05. 16:30 43% >70 km
Di, 11.05. 16:00 42% 60 km
Ortszeit Niederschlagsmenge Niederschlagsart
Di, 11.05. 14:00 0.0 l/m2 in 6 Std. -
Di, 11.05. 8:00 0.0 l/m2 in 12 Std. -
Di, 11.05. 2:00 0.0 l/m2 in 6 Std. -
Mo, 10.05. 20:00 0.0 l/m2 in 12 Std. -
Mo, 10.05. 14:00 0.0 l/m2 in 6 Std. -
Mo, 10.05. 8:00 0.1 l/m2 in 12 Std. Niederschlag
Mo, 10.05. 2:00 0.0 l/m2 in 6 Std. -
So, 09.05. 20:00 0.0 l/m2 in 12 Std. -
Ortszeit Niederschlagsmenge Niederschlagsart
Di, 11.05. 19:00 0.0 l/m2 in 1 Std. -
Di, 11.05. 18:50 keine Meldung -
Di, 11.05. 18:40 keine Meldung -
Di, 11.05. 18:30 0.0 l/m2 in 1 Std. -
Di, 11.05. 18:20 keine Meldung -
Di, 11.05. 18:10 keine Meldung -
Di, 11.05. 18:00 0.0 l/m2 in 1 Std. -
Di, 11.05. 17:30 0.0 l/m2 in 1 Std. -
Di, 11.05. 17:00 0.0 l/m2 in 1 Std. -
Di, 11.05. 16:30 0.0 l/m2 in 1 Std. -
Di, 11.05. 16:00 0.0 l/m2 in 1 Std. -
Ortszeit Stärke Spitze Richtung
km/h Bft. km/h Grad Sektor
Di, 11.05. 14:00 22 4 43 170° S
Di, 11.05. 8:00 22 4 44 170° S
Di, 11.05. 2:00 32 5 50 150° SO
Mo, 10.05. 20:00 22 4 33 150° SO
Mo, 10.05. 14:00 11 2 32 180° S
Mo, 10.05. 8:00 17 3 50 190° S
Mo, 10.05. 2:00 39 6 54 180° S
So, 09.05. 20:00 28 4 39 140° SO
Ortszeit Stärke Spitze Richtung
km/h Bft. km/h Grad Sektor
Di, 11.05. 19:00 14 3 29 150° SO
Di, 11.05. 18:50 14 3 - 150° SO
Di, 11.05. 18:40 14 3 - 140° SO
Di, 11.05. 18:30 15 3 28 160° S
Di, 11.05. 18:20 15 3 - 160° S
Di, 11.05. 18:10 7 2 - 150° SO
Di, 11.05. 18:00 7 2 29 190° S
Di, 11.05. 17:30 11 2 29 170° S
Di, 11.05. 17:00 20 4 37 180° S
Di, 11.05. 16:30 22 4 37 170° S
Di, 11.05. 16:00 24 4 33 170° S
Ortszeit Untergrenze Bedeckung Gattung
total tief tief mittel hoch
Di, 11.05. 14:00 3000 m 6/8 4/8 - - -
Di, 11.05. 8:00 4500 m 8/8 8/8 - - -
Di, 11.05. 2:00 6600 m 6/8 5/8 - - -
Mo, 10.05. 20:00 6300 m 7/8 5/8 - - -
Mo, 10.05. 14:00 - 0/8 0/8 - - -
Mo, 10.05. 8:00 8400 m 7/8 0/8 - - -
Mo, 10.05. 2:00 6600 m 8/8 7/8 - - -
So, 09.05. 20:00 10500 m 7/8 0/8 - - -
Ortszeit Bedeckungsgrad in Achtel und Wolkenuntergrenze
Di, 11.05. 19:00 5(2100m) 7(2700m) 8(4500m)
Di, 11.05. 18:50 5(2100m) 7(2700m) 8(4500m)
Di, 11.05. 18:40 7(2100m) 7(2400m) 8(4500m)
Di, 11.05. 18:30 8(1800m) 8(2400m)
Di, 11.05. 18:20 8(1800m)
Di, 11.05. 18:10 8(1800m)
Di, 11.05. 18:00 7(1800m) 8(5100m)
Di, 11.05. 17:30 2(1800m) 5(3000m) 8(4800m)
Di, 11.05. 17:00 6(2400m) 8(3000m)
Di, 11.05. 16:30 3(2100m) 7(2400m) 8(3900m)
Di, 11.05. 16:00 1(2100m) 7(2700m) 8(3600m)
Ortszeit Stationsdruck (hPa) Tendenz (hPa in 3 Std.)
Di, 11.05. 14:00 848 - 0,4
Di, 11.05. 8:00 849 - 0,7
Di, 11.05. 2:00 850 - 1,3
Mo, 10.05. 20:00 852 - 0,5
Mo, 10.05. 14:00 853 - 0,1
Mo, 10.05. 8:00 852 + 0,9
Mo, 10.05. 2:00 851 - 0,2
So, 09.05. 20:00 852 - 1,8
Ortszeit Stationsdruck (hPa) Tendenz (hPa in 3 Std.)
Di, 11.05. 19:00 847 - 0,7
Di, 11.05. 18:50 847 keine Meldung
Di, 11.05. 18:40 847 keine Meldung
Di, 11.05. 18:30 847 - 0,8
Di, 11.05. 18:20 847 keine Meldung
Di, 11.05. 18:10 847 keine Meldung
Di, 11.05. 18:00 847 - 0,6
Di, 11.05. 17:30 847 - 0,7
Di, 11.05. 17:00 848 - 0,8
Di, 11.05. 16:30 848 - 1,0
Di, 11.05. 16:00 848 - 0,9
Ortszeit Schneehöhe (cm)
Di, 11.05. 14:00 47
Di, 11.05. 8:00 54
Di, 11.05. 2:00 58
Mo, 10.05. 20:00 61
Mo, 10.05. 14:00 66
Mo, 10.05. 8:00 71
Mo, 10.05. 2:00 74
So, 09.05. 20:00 77
Ortszeit Schneehöhe (cm)
Di, 11.05. 19:00 44
Di, 11.05. 18:50 44
Di, 11.05. 18:40 44
Di, 11.05. 18:30 44
Di, 11.05. 18:20 44
Di, 11.05. 18:10 44
Di, 11.05. 18:00 44
Di, 11.05. 17:30 45
Di, 11.05. 17:00 45
Di, 11.05. 16:30 45
Di, 11.05. 16:00 45
Link zu dieser Seite / Seite empfehlen

Das Wetter in ...